Hlavní strana
METAR-TAF:

METAR-TAF

Letiště :

Kuopio, Finsko

zeměpisná šířka: 63-01N, zeměpisná délka: 027-48E, výška: 98 m

Aktuální stav počasí

Zpráva byla vytvořena před 19 minutami, v 02:50 UTC
Západojihozápadní vítr 5 kt
Teplota 5°C
Vlhkost vzduchu 100%
Tlak 1020 hPa
Viditelnost: 3000 m
Zataženo ve výšce 300 ft
kouřmo

METAR: EFKU 180250Z AUTO 24005KT 3000 BR OVC003 05/05 Q1020

Čas: 05:09 (03:09 UTC)

Předpověď počasí

Zpráva byla vytvořena před 28 minutami, v 02:41 UTC
Předpověď platná od 18 v 03 UTC do 19 v 03 UTC
Západní vítr 3 kt
Viditelnost: 0600 m
ve výšce 200 ft
mlha
Dočasný
od 18 v 03 UTC do 18 v 15 UTC
Viditelnost: 3000 m
Zataženo ve výšce 300 ft
slabé mrholení
Dočasný
od 18 v 15 UTC do 19 v 03 UTC
Viditelnost: 1500 m
kouřmo

TAF: EFKU 180241Z 1803/1903 26003KT 0600 FG VV002 TEMPO 1803/1815 3000 -DZ OVC003 TEMPO 1815/1903 1500 BR

Stav a předpovědi počasí z více než 4 000 letišť (zprávy METAR a TAF).

Červené a žluté tečky na mapě představují dostupné meteorologické stanice.

Když kurzor umístíte na tečku, zobrazí se název stanice.

Pak kliknutím zobrazíte stav a předpověď počasí.

Chcete-li změnit mapu, kliknutím na zelené tlačítko se znaménkem +mapu přiblížíte, kliknutím na zelené tlačítko se znaménkem – mapu oddálíte a kliknutím na zelené šipky přejdete na sousední mapy.


METAR-TAF: